createdAt,value
2018-07-31T00:02:09.107Z,101291.72
2018-07-31T00:04:38.239Z,101295.82
2018-07-31T00:07:07.252Z,101297.97
2018-07-31T00:09:36.037Z,101295.95
2018-07-31T00:12:04.939Z,101294.67
2018-07-31T00:14:33.758Z,101289.47
2018-07-31T00:17:03.063Z,101290.41
2018-07-31T00:19:31.933Z,101298.66
2018-07-31T00:22:01.156Z,101294.27
2018-07-31T00:24:30.345Z,101296.77
2018-07-31T00:26:59.398Z,101296.94
2018-07-31T00:29:28.419Z,101301.77
2018-07-31T00:31:57.545Z,101298.37
2018-07-31T00:34:26.332Z,101301.42
2018-07-31T00:36:55.301Z,101296.58
2018-07-31T00:39:24.692Z,101298.90
2018-07-31T00:41:53.470Z,101291.31
2018-07-31T00:44:22.551Z,101302.64
2018-07-31T00:46:51.556Z,101308.11
2018-07-31T00:49:20.751Z,101309.22
2018-07-31T00:51:49.556Z,101300.30
2018-07-31T00:54:18.455Z,101302.97
2018-07-31T00:56:47.466Z,101294.86
2018-07-31T00:59:16.425Z,101289.49
2018-07-31T01:01:45.206Z,101298.38
2018-07-31T01:04:14.009Z,101306.83
2018-07-31T01:06:44.100Z,101305.61
2018-07-31T01:09:14.354Z,101293.72
2018-07-31T01:11:43.092Z,101290.17
2018-07-31T01:14:11.918Z,101292.28
2018-07-31T01:16:41.881Z,101292.72
2018-07-31T01:19:12.624Z,101292.12
2018-07-31T01:21:42.077Z,101296.32
2018-07-31T01:24:11.671Z,101294.19
2018-07-31T01:26:40.468Z,101288.88
2018-07-31T01:29:09.616Z,101286.38
2018-07-31T01:31:38.458Z,101283.08
2018-07-31T01:34:07.185Z,101283.24
2018-07-31T01:36:36.195Z,101285.78
2018-07-31T01:39:07.080Z,101288.39
2018-07-31T01:41:35.833Z,101286.84
2018-07-31T01:44:04.847Z,101276.58
2018-07-31T01:46:33.826Z,101273.63
2018-07-31T01:49:02.866Z,101272.23
2018-07-31T01:51:31.802Z,101269.27
2018-07-31T01:54:00.566Z,101270.16
2018-07-31T01:56:29.614Z,101265.22
2018-07-31T01:58:58.314Z,101259.23
2018-07-31T02:01:27.721Z,101251.87
2018-07-31T02:03:56.800Z,101250.27
2018-07-31T02:06:27.698Z,101256.58
2018-07-31T02:08:57.620Z,101254.98
2018-07-31T02:11:26.410Z,101254.20
2018-07-31T02:13:55.263Z,101252.22
2018-07-31T02:16:24.557Z,101251.00
2018-07-31T02:18:53.633Z,101248.05
2018-07-31T02:21:22.719Z,101239.92
2018-07-31T02:23:51.485Z,101238.92
2018-07-31T02:26:20.336Z,101243.63
2018-07-31T02:28:49.070Z,101238.11
2018-07-31T02:31:18.075Z,101238.11
2018-07-31T02:33:46.798Z,101234.18
2018-07-31T02:36:15.859Z,101240.09
2018-07-31T02:38:44.643Z,101232.02
2018-07-31T02:41:13.723Z,101226.84
2018-07-31T02:43:42.439Z,101230.41
2018-07-31T02:46:11.530Z,101231.58
2018-07-31T02:48:40.455Z,101239.87
2018-07-31T02:51:09.198Z,101229.80
2018-07-31T02:53:37.894Z,101236.02
2018-07-31T02:56:06.829Z,101244.25
2018-07-31T02:58:35.861Z,101247.73
2018-07-31T03:01:04.628Z,101244.97
2018-07-31T03:03:33.498Z,101246.95
2018-07-31T03:06:02.510Z,101237.63
2018-07-31T03:08:31.427Z,101239.61
2018-07-31T03:11:00.114Z,101242.53
2018-07-31T03:13:29.200Z,101246.02
2018-07-31T03:15:58.564Z,101238.48
2018-07-31T03:18:27.362Z,101243.56
2018-07-31T03:20:57.343Z,101242.56
2018-07-31T03:23:26.592Z,101243.73
2018-07-31T03:25:55.337Z,101239.18
2018-07-31T03:28:24.180Z,101240.72
2018-07-31T03:30:53.357Z,101251.32
2018-07-31T03:33:22.355Z,101256.84
2018-07-31T03:35:51.413Z,101256.06
2018-07-31T03:38:21.218Z,101251.92
2018-07-31T03:40:50.389Z,101253.67
2018-07-31T03:43:19.210Z,101254.42
2018-07-31T03:45:47.924Z,101248.06
2018-07-31T03:48:16.643Z,101251.76
2018-07-31T03:50:45.740Z,101252.22
2018-07-31T03:53:14.446Z,101250.42
2018-07-31T03:55:43.357Z,101249.91
2018-07-31T03:58:12.261Z,101251.78
2018-07-31T04:00:41.306Z,101250.70
2018-07-31T04:03:10.398Z,101252.27
2018-07-31T04:05:39.119Z,101254.47
2018-07-31T04:08:08.095Z,101253.09
2018-07-31T04:10:37.187Z,101253.09
2018-07-31T04:13:06.285Z,101250.70
2018-07-31T04:15:35.309Z,101251.42
2018-07-31T04:18:04.027Z,101255.33
2018-07-31T04:20:32.793Z,101253.88
2018-07-31T04:23:01.800Z,101261.16
2018-07-31T04:25:30.905Z,101250.20
2018-07-31T04:27:59.661Z,101246.84
2018-07-31T04:30:28.980Z,101253.96
2018-07-31T04:32:57.799Z,101260.08
2018-07-31T04:35:26.531Z,101265.73
2018-07-31T04:37:55.303Z,101265.37
2018-07-31T04:40:24.384Z,101269.13
2018-07-31T04:42:53.546Z,101270.52
2018-07-31T04:45:22.291Z,101265.59
2018-07-31T04:47:51.388Z,101265.73
2018-07-31T04:50:20.139Z,101266.41
2018-07-31T04:52:48.888Z,101261.27
2018-07-31T04:55:17.643Z,101259.88
2018-07-31T04:57:47.634Z,101251.77
2018-07-31T05:00:16.330Z,101255.75
2018-07-31T05:02:45.112Z,101257.77
2018-07-31T05:05:13.788Z,101269.73
2018-07-31T05:07:43.151Z,101266.78
2018-07-31T05:10:13.543Z,101269.95
2018-07-31T05:12:43.397Z,101270.02
2018-07-31T05:15:12.278Z,101274.09
2018-07-31T05:17:41.472Z,101261.94
2018-07-31T05:20:10.977Z,101265.77
2018-07-31T05:22:41.403Z,101266.14
2018-07-31T05:25:10.577Z,101271.05
2018-07-31T05:27:39.749Z,101272.91
2018-07-31T05:30:10.610Z,101272.23
2018-07-31T05:32:40.200Z,101275.53
2018-07-31T05:35:10.090Z,101276.86
2018-07-31T05:37:39.053Z,101279.97
2018-07-31T05:40:09.047Z,101285.74
2018-07-31T05:42:38.186Z,101288.63
2018-07-31T05:45:07.933Z,101287.21
2018-07-31T05:47:36.806Z,101283.22
2018-07-31T05:50:06.144Z,101286.75
2018-07-31T05:52:35.173Z,101286.70
2018-07-31T05:55:03.932Z,101281.64
2018-07-31T05:57:32.708Z,101287.84
2018-07-31T06:00:01.514Z,101293.29
2018-07-31T06:02:30.221Z,101297.78
2018-07-31T06:04:58.994Z,101294.98
2018-07-31T06:07:27.682Z,101292.89
2018-07-31T06:09:56.980Z,101301.47
2018-07-31T06:12:25.680Z,101300.37
2018-07-31T06:14:54.474Z,101300.43
2018-07-31T06:17:23.335Z,101296.16
2018-07-31T06:19:52.026Z,101301.40
2018-07-31T06:22:20.752Z,101310.97
2018-07-31T06:24:50.112Z,101317.95
2018-07-31T06:27:19.207Z,101310.91
2018-07-31T06:29:48.958Z,101316.95
2018-07-31T06:32:17.810Z,101323.36
2018-07-31T06:34:47.213Z,101327.94
2018-07-31T06:37:16.385Z,101320.89
2018-07-31T06:39:45.613Z,101319.41
2018-07-31T06:42:14.293Z,101325.41
2018-07-31T06:44:43.114Z,101325.06
2018-07-31T06:47:12.194Z,101318.78
2018-07-31T06:49:40.871Z,101315.56
2018-07-31T06:52:09.994Z,101307.18
2018-07-31T06:54:39.065Z,101301.13
2018-07-31T06:57:07.850Z,101304.95
2018-07-31T06:59:36.588Z,101307.38
2018-07-31T07:02:05.336Z,101312.97
2018-07-31T07:04:34.368Z,101317.93
2018-07-31T07:07:03.106Z,101316.74
2018-07-31T07:09:32.135Z,101321.70
2018-07-31T07:12:01.155Z,101321.94
2018-07-31T07:14:30.090Z,101318.95
2018-07-31T07:16:58.888Z,101324.30
2018-07-31T07:19:27.732Z,101320.75
2018-07-31T07:21:56.704Z,101324.52
2018-07-31T07:24:25.796Z,101323.94
2018-07-31T07:26:54.501Z,101320.00
2018-07-31T07:29:23.458Z,101321.64
2018-07-31T07:31:52.271Z,101321.06
2018-07-31T07:34:21.295Z,101315.69
2018-07-31T07:36:50.296Z,101315.50
2018-07-31T07:39:19.026Z,101310.15
2018-07-31T07:41:47.784Z,101311.32
2018-07-31T07:44:16.480Z,101309.75
2018-07-31T07:46:45.808Z,101311.73
2018-07-31T07:49:14.500Z,101312.31
2018-07-31T07:51:43.201Z,101309.55
2018-07-31T07:54:12.038Z,101308.16
2018-07-31T07:56:41.053Z,101305.76
2018-07-31T07:59:10.082Z,101304.37
2018-07-31T08:01:38.799Z,101296.66
2018-07-31T08:04:08.327Z,101292.05
2018-07-31T08:06:37.057Z,101301.39
2018-07-31T08:09:08.243Z,101302.59
2018-07-31T08:11:37.129Z,101308.73
2018-07-31T08:14:05.894Z,101306.53
2018-07-31T08:16:34.885Z,101305.31
2018-07-31T08:19:03.633Z,101309.11
2018-07-31T08:21:32.416Z,101316.61
2018-07-31T08:24:01.122Z,101323.93
2018-07-31T08:26:30.154Z,101327.28
2018-07-31T08:28:59.266Z,101321.14
2018-07-31T08:31:28.439Z,101326.29
2018-07-31T08:33:57.161Z,101332.63
2018-07-31T08:36:26.071Z,101328.24
2018-07-31T08:38:55.020Z,101330.61
2018-07-31T08:41:24.077Z,101337.38
2018-07-31T08:43:52.805Z,101337.58
2018-07-31T08:46:21.859Z,101346.33
2018-07-31T08:48:50.581Z,101347.06
2018-07-31T08:51:20.035Z,101343.66
2018-07-31T08:53:48.788Z,101339.22
2018-07-31T08:56:17.712Z,101338.18
2018-07-31T08:58:46.659Z,101332.58
2018-07-31T09:01:15.451Z,101342.28
2018-07-31T09:03:44.382Z,101339.80
2018-07-31T09:06:13.105Z,101344.69
2018-07-31T09:08:42.412Z,101340.98
2018-07-31T09:11:11.109Z,101335.52
2018-07-31T09:13:40.091Z,101334.69
2018-07-31T09:16:08.810Z,101333.27
2018-07-31T09:18:38.294Z,101326.56
2018-07-31T09:21:07.005Z,101333.56
2018-07-31T09:23:36.283Z,101335.83
2018-07-31T09:26:05.051Z,101338.36
2018-07-31T09:28:34.598Z,101337.02
2018-07-31T09:31:08.835Z,101331.20
2018-07-31T09:33:37.394Z,101320.92
2018-07-31T09:36:06.081Z,101322.86
2018-07-31T09:38:35.180Z,101318.40
2018-07-31T09:41:03.915Z,101315.19
2018-07-31T09:43:32.666Z,101310.80
2018-07-31T09:46:01.445Z,101307.63
2018-07-31T09:48:30.156Z,101309.22
2018-07-31T09:50:58.925Z,101303.87
2018-07-31T09:53:27.635Z,101306.86
2018-07-31T09:55:56.934Z,101295.42
2018-07-31T09:58:25.714Z,101295.10
2018-07-31T10:01:29.522Z,101294.86
2018-07-31T10:03:59.226Z,101299.86
2018-07-31T10:06:27.950Z,101302.04
2018-07-31T10:08:56.893Z,101304.05
2018-07-31T10:11:25.618Z,101306.17
2018-07-31T10:13:54.351Z,101307.58
2018-07-31T10:16:23.094Z,101311.05
2018-07-31T10:18:52.197Z,101308.79
2018-07-31T10:21:20.923Z,101310.48
2018-07-31T10:23:49.658Z,101312.12
2018-07-31T10:26:19.007Z,101313.30
2018-07-31T10:28:48.342Z,101311.82
2018-07-31T10:31:17.134Z,101311.77
2018-07-31T10:33:45.946Z,101319.48
2018-07-31T10:36:14.697Z,101318.27
2018-07-31T10:38:43.397Z,101311.88
2018-07-31T10:41:12.428Z,101309.16
2018-07-31T10:43:41.440Z,101308.82
2018-07-31T10:46:10.591Z,101303.73
2018-07-31T10:48:39.279Z,101304.55
2018-07-31T10:51:08.035Z,101305.02
2018-07-31T10:53:36.779Z,101301.06
2018-07-31T10:56:05.517Z,101311.74
2018-07-31T10:58:34.890Z,101306.42
2018-07-31T11:01:03.571Z,101306.96
2018-07-31T11:03:32.612Z,101300.65
2018-07-31T11:06:01.346Z,101300.39
2018-07-31T11:08:30.326Z,101297.95
2018-07-31T11:10:59.368Z,101300.79
2018-07-31T11:13:28.087Z,101305.53
2018-07-31T11:15:57.459Z,101296.84
2018-07-31T11:18:26.525Z,101290.80
2018-07-31T11:20:55.856Z,101289.01
2018-07-31T11:23:24.825Z,101287.18
2018-07-31T11:25:53.538Z,101297.23
2018-07-31T11:28:22.631Z,101295.62
2018-07-31T11:30:51.328Z,101298.14
2018-07-31T11:33:20.097Z,101294.37
2018-07-31T11:35:48.834Z,101288.44
2018-07-31T11:38:17.589Z,101293.34
2018-07-31T11:40:46.321Z,101285.26
2018-07-31T11:43:15.111Z,101281.23
2018-07-31T11:45:44.588Z,101275.28
2018-07-31T11:48:13.258Z,101275.89
2018-07-31T11:50:42.227Z,101275.32
2018-07-31T11:53:10.994Z,101277.41
2018-07-31T11:55:39.976Z,101290.97
2018-07-31T11:58:08.704Z,101291.17
2018-07-31T12:00:38.392Z,101295.22
2018-07-31T12:03:07.083Z,101282.56
2018-07-31T12:05:36.739Z,101285.48
2018-07-31T12:08:05.510Z,101284.73
2018-07-31T12:10:38.344Z,101293.97
2018-07-31T12:13:07.785Z,101297.34
2018-07-31T12:15:49.555Z,101309.55
2018-07-31T12:18:18.611Z,101315.11
2018-07-31T12:20:47.720Z,101327.86
2018-07-31T12:23:16.834Z,101369.14
2018-07-31T12:25:45.988Z,101425.62
2018-07-31T12:28:15.602Z,101360.52
2018-07-31T12:30:44.589Z,101378.11
2018-07-31T12:33:14.161Z,101365.44
2018-07-31T12:35:43.538Z,101365.34
2018-07-31T12:38:12.828Z,101370.53
2018-07-31T12:40:41.604Z,101369.33
2018-07-31T12:43:10.313Z,101369.64
2018-07-31T12:45:39.647Z,101361.44
2018-07-31T12:48:08.583Z,101366.91
2018-07-31T12:50:37.429Z,101363.91
2018-07-31T12:53:06.414Z,101381.92
2018-07-31T12:55:35.208Z,101388.35
2018-07-31T12:58:03.908Z,101412.24
2018-07-31T13:00:32.621Z,101413.45
2018-07-31T13:03:01.415Z,101423.42
2018-07-31T13:05:30.158Z,101422.55
2018-07-31T13:07:59.196Z,101425.73
2018-07-31T13:10:27.982Z,101429.91
2018-07-31T13:12:56.717Z,101433.81
2018-07-31T13:15:26.243Z,101437.42
2018-07-31T13:17:55.208Z,101440.97
2018-07-31T13:20:23.944Z,101443.27
2018-07-31T13:22:52.721Z,101454.48
2018-07-31T13:25:21.429Z,101447.31
2018-07-31T13:27:51.099Z,101440.11
2018-07-31T13:30:19.813Z,101447.60
2018-07-31T13:32:48.517Z,101448.77
2018-07-31T13:35:17.334Z,101454.64
2018-07-31T13:37:46.067Z,101452.53
2018-07-31T13:40:14.831Z,101452.30
2018-07-31T13:42:43.538Z,101446.53
2018-07-31T13:45:12.279Z,101461.92
2018-07-31T13:47:41.016Z,101454.67
2018-07-31T13:50:09.795Z,101455.16
2018-07-31T13:52:39.116Z,101460.89
2018-07-31T13:55:08.221Z,101457.73
2018-07-31T13:57:37.362Z,101464.30
2018-07-31T14:00:06.622Z,101467.97
2018-07-31T14:02:35.450Z,101466.86
2018-07-31T14:05:04.180Z,101477.53
2018-07-31T14:07:33.019Z,101475.93
2018-07-31T14:10:02.060Z,101472.66
2018-07-31T14:12:30.747Z,101468.87
2018-07-31T14:14:59.568Z,101481.98
2018-07-31T14:17:28.359Z,101491.15
2018-07-31T14:19:57.111Z,101498.45
2018-07-31T14:22:26.604Z,101491.59
2018-07-31T14:24:55.957Z,101501.43
2018-07-31T14:27:24.709Z,101499.78
2018-07-31T14:29:54.094Z,101498.53
2018-07-31T14:32:23.026Z,101506.85
2018-07-31T14:34:51.846Z,101506.91
2018-07-31T14:37:20.837Z,101506.91
2018-07-31T14:39:50.276Z,101507.33
2018-07-31T14:42:19.023Z,101505.91
2018-07-31T14:44:48.061Z,101504.17
2018-07-31T14:47:16.829Z,101509.28
2018-07-31T14:49:45.653Z,101506.09
2018-07-31T14:52:14.395Z,101517.73
2018-07-31T14:54:43.161Z,101515.84
2018-07-31T14:57:12.282Z,101519.28
2018-07-31T14:59:40.966Z,101523.70
2018-07-31T15:02:09.741Z,101528.56
2018-07-31T15:04:38.438Z,101525.88
2018-07-31T15:07:07.185Z,101529.62
2018-07-31T15:09:36.220Z,101530.67
2018-07-31T15:12:05.275Z,101531.25
2018-07-31T15:14:34.539Z,101546.79
2018-07-31T15:17:03.863Z,101546.49
2018-07-31T15:19:32.562Z,101553.78
2018-07-31T15:22:01.557Z,101550.20
2018-07-31T15:24:30.242Z,101559.97
2018-07-31T15:26:59.207Z,101552.28
2018-07-31T15:29:27.957Z,101558.08
2018-07-31T15:31:57.332Z,101554.41
2018-07-31T15:34:26.027Z,101549.73
2018-07-31T15:36:55.467Z,101551.86
2018-07-31T15:39:24.381Z,101551.67
2018-07-31T15:41:53.456Z,101548.59
2018-07-31T15:44:22.209Z,101553.16
2018-07-31T15:46:51.611Z,101554.19
2018-07-31T15:49:20.631Z,101558.05
2018-07-31T15:51:49.454Z,101555.77
2018-07-31T15:54:18.899Z,101563.21
2018-07-31T15:56:47.589Z,101560.83
2018-07-31T15:59:16.350Z,101572.37
2018-07-31T16:01:45.150Z,101567.36
2018-07-31T16:04:14.052Z,101566.42
2018-07-31T16:06:43.111Z,101568.07
2018-07-31T16:09:12.534Z,101566.02
2018-07-31T16:11:41.458Z,101574.02
2018-07-31T16:14:10.587Z,101576.16
2018-07-31T16:16:39.384Z,101579.73
2018-07-31T16:19:08.498Z,101574.56
2018-07-31T16:21:38.157Z,101574.62
2018-07-31T16:24:06.936Z,101574.75
2018-07-31T16:26:36.620Z,101571.45
2018-07-31T16:29:05.908Z,101570.41
2018-07-31T16:31:34.921Z,101571.75
2018-07-31T16:34:03.976Z,101573.79
2018-07-31T16:36:32.730Z,101565.44
2018-07-31T16:39:01.805Z,101562.74
2018-07-31T16:41:30.899Z,101569.25
2018-07-31T16:43:59.636Z,101574.34
2018-07-31T16:46:28.578Z,101577.26
2018-07-31T16:48:57.356Z,101589.28
2018-07-31T16:51:26.404Z,101588.77
2018-07-31T16:53:55.138Z,101591.34
2018-07-31T16:56:23.867Z,101591.64
2018-07-31T16:58:53.087Z,101590.34
2018-07-31T17:01:22.214Z,101596.47
2018-07-31T17:03:51.231Z,101598.01
2018-07-31T17:06:20.233Z,101599.04
2018-07-31T17:08:48.994Z,101594.56
2018-07-31T17:11:18.338Z,101601.12
2018-07-31T17:13:47.371Z,101601.02
2018-07-31T17:16:16.098Z,101602.46
2018-07-31T17:18:45.071Z,101615.23
2018-07-31T17:21:13.832Z,101613.19
2018-07-31T17:23:42.558Z,101602.46
2018-07-31T17:26:11.623Z,101608.71
2018-07-31T17:28:40.689Z,101609.94
2018-07-31T17:31:09.447Z,101613.34
2018-07-31T17:33:38.457Z,101621.15
2018-07-31T17:36:07.232Z,101624.00
2018-07-31T17:38:35.981Z,101627.22
2018-07-31T17:41:04.897Z,101627.67
2018-07-31T17:43:33.894Z,101621.33
2018-07-31T17:46:02.623Z,101620.94
2018-07-31T17:48:31.560Z,101628.11
2018-07-31T17:51:00.719Z,101629.70
2018-07-31T17:53:29.410Z,101634.50
2018-07-31T17:55:58.210Z,101633.31
2018-07-31T17:58:27.287Z,101640.48
2018-07-31T18:00:56.311Z,101641.09
2018-07-31T18:03:25.040Z,101645.11
2018-07-31T18:05:54.154Z,101648.33
2018-07-31T18:08:22.892Z,101652.50
2018-07-31T18:10:51.639Z,101653.88
2018-07-31T18:13:20.535Z,101657.88
2018-07-31T18:15:49.605Z,101662.24
2018-07-31T18:18:19.001Z,101664.22
2018-07-31T18:20:48.039Z,101664.41
2018-07-31T18:23:16.784Z,101666.58
2018-07-31T18:25:45.497Z,101661.17
2018-07-31T18:28:14.257Z,101670.87
2018-07-31T18:30:43.055Z,101670.84
2018-07-31T18:33:12.021Z,101677.30
2018-07-31T18:35:40.814Z,101680.40
2018-07-31T18:38:10.306Z,101687.54
2018-07-31T18:40:39.722Z,101693.44
2018-07-31T18:43:08.413Z,101687.45
2018-07-31T18:45:37.183Z,101698.94
2018-07-31T18:48:05.967Z,101702.66
2018-07-31T18:50:34.950Z,101706.39
2018-07-31T18:53:03.646Z,101706.15
2018-07-31T18:55:32.514Z,101716.41
2018-07-31T18:58:01.566Z,101722.10
2018-07-31T19:00:30.267Z,101724.41
2018-07-31T19:02:59.444Z,101720.00
2018-07-31T19:05:28.211Z,101728.23
2018-07-31T19:07:56.969Z,101723.58
2018-07-31T19:10:26.307Z,101733.04
2018-07-31T19:12:55.637Z,101735.12
2018-07-31T19:15:24.597Z,101735.52
2018-07-31T19:17:53.388Z,101733.99
2018-07-31T19:20:22.135Z,101739.23
2018-07-31T19:22:50.963Z,101744.22
2018-07-31T19:25:19.677Z,101749.31
2018-07-31T19:27:48.428Z,101747.42
2018-07-31T19:30:17.532Z,101747.47
2018-07-31T19:32:46.790Z,101761.81
2018-07-31T19:35:21.734Z,101756.63
2018-07-31T19:37:50.771Z,101765.95
2018-07-31T19:40:19.836Z,101768.09
2018-07-31T19:42:48.586Z,101769.42
2018-07-31T19:45:18.474Z,101770.17
2018-07-31T19:47:47.910Z,101774.42
2018-07-31T19:50:16.851Z,101780.84
2018-07-31T19:52:46.060Z,101787.42
2018-07-31T19:55:14.818Z,101786.94
2018-07-31T19:57:43.544Z,101783.38
2018-07-31T20:00:12.235Z,101789.86
2018-07-31T20:02:41.488Z,101791.78
2018-07-31T20:05:10.172Z,101795.23
2018-07-31T20:07:39.080Z,101793.97
2018-07-31T20:10:08.005Z,101791.12
2018-07-31T20:12:37.084Z,101799.09
2018-07-31T20:15:05.901Z,101804.41
2018-07-31T20:17:34.910Z,101806.69
2018-07-31T20:20:04.020Z,101804.00
2018-07-31T20:22:32.750Z,101806.51
2018-07-31T20:25:01.650Z,101806.39
2018-07-31T20:27:30.442Z,101810.24
2018-07-31T20:29:59.085Z,101813.53
2018-07-31T20:32:28.115Z,101819.35
2018-07-31T20:34:57.104Z,101822.64
2018-07-31T20:37:25.885Z,101827.08
2018-07-31T20:39:55.513Z,101827.37
2018-07-31T20:42:24.926Z,101833.64
2018-07-31T20:44:53.670Z,101834.48
2018-07-31T20:47:22.361Z,101828.60
2018-07-31T20:49:51.110Z,101829.81
2018-07-31T20:52:20.396Z,101825.16
2018-07-31T20:54:49.554Z,101829.73
2018-07-31T20:57:18.619Z,101826.17
2018-07-31T20:59:47.419Z,101832.81
2018-07-31T21:02:16.659Z,101836.50
2018-07-31T21:04:45.690Z,101833.74
2018-07-31T21:07:14.454Z,101839.41
2018-07-31T21:09:43.207Z,101834.39
2018-07-31T21:12:11.937Z,101841.66
2018-07-31T21:14:40.934Z,101839.04
2018-07-31T21:17:09.698Z,101838.95
2018-07-31T21:19:38.668Z,101849.50
2018-07-31T21:22:07.825Z,101845.99
2018-07-31T21:24:36.521Z,101844.66
2018-07-31T21:27:05.280Z,101847.69
2018-07-31T21:29:34.038Z,101846.25
2018-07-31T21:32:03.091Z,101850.53
2018-07-31T21:34:31.884Z,101849.84
2018-07-31T21:37:00.636Z,101858.83
2018-07-31T21:39:29.783Z,101857.52
2018-07-31T21:41:58.621Z,101862.72
2018-07-31T21:44:27.683Z,101867.26
2018-07-31T21:46:56.384Z,101864.56
2018-07-31T21:49:25.196Z,101866.90
2018-07-31T21:51:54.234Z,101873.63
2018-07-31T21:54:23.286Z,101863.58
2018-07-31T21:56:52.761Z,101873.48
2018-07-31T21:59:21.779Z,101870.20
2018-07-31T22:01:50.537Z,101873.57
2018-07-31T22:04:19.784Z,101878.45
2018-07-31T22:06:48.829Z,101874.53
2018-07-31T22:09:20.628Z,101878.33
2018-07-31T22:11:49.684Z,101887.09
2018-07-31T22:14:19.178Z,101886.91
2018-07-31T22:16:48.464Z,101889.31
2018-07-31T22:19:18.025Z,101883.03
2018-07-31T22:21:47.020Z,101888.23
2018-07-31T22:24:16.412Z,101885.59
2018-07-31T22:26:45.255Z,101882.96
2018-07-31T22:29:14.304Z,101889.74
2018-07-31T22:31:43.618Z,101889.55
2018-07-31T22:34:12.450Z,101896.09
2018-07-31T22:36:41.201Z,101901.88
2018-07-31T22:39:11.272Z,101894.40
2018-07-31T22:41:40.379Z,101900.03
2018-07-31T22:44:09.504Z,101894.98
2018-07-31T22:46:38.287Z,101898.21
2018-07-31T22:49:07.452Z,101895.89
2018-07-31T22:51:36.972Z,101901.17
2018-07-31T22:54:06.023Z,101893.48
2018-07-31T22:56:35.059Z,101891.20
2018-07-31T22:59:03.838Z,101886.16
2018-07-31T23:01:32.954Z,101888.21
2018-07-31T23:04:01.695Z,101887.66
2018-07-31T23:06:31.010Z,101894.53
2018-07-31T23:09:00.067Z,101893.86
2018-07-31T23:11:28.763Z,101882.86
2018-07-31T23:13:57.679Z,101889.52
2018-07-31T23:16:26.946Z,101885.95
2018-07-31T23:18:56.136Z,101892.59
2018-07-31T23:21:25.097Z,101896.39
2018-07-31T23:23:53.861Z,101890.87
2018-07-31T23:26:22.695Z,101885.39
2018-07-31T23:28:52.166Z,101887.77
2018-07-31T23:31:21.244Z,101887.20
2018-07-31T23:33:50.013Z,101886.83
2018-07-31T23:36:18.829Z,101899.56
2018-07-31T23:38:47.787Z,101905.05
2018-07-31T23:41:16.898Z,101894.25
2018-07-31T23:43:46.067Z,101896.64
2018-07-31T23:46:14.805Z,101896.50
2018-07-31T23:48:44.209Z,101891.25
2018-07-31T23:51:13.079Z,101891.11
2018-07-31T23:53:42.206Z,101890.30
2018-07-31T23:56:11.053Z,101899.10
2018-07-31T23:58:40.145Z,101899.07
